Aérodrome :
LOGIN :

S'inscrire | Disclaimer

   EN    FR    IT 

 










Légende :    VFR   VFR Marginal   IFR   IFR Intensif   IFR Très Intensif
Visi : 
Plafond : 
>= 8 km
>= 3000ft
5 à 8 km
1000 à 3000 ft
1500m à 5 km
500 à 1000 ft
800 à 1500m
200 à 500 ft
< 800m
< 200 ft
Symboles :   Orages  Brouillard  Fortes neiges  Fortes précipitations  Vent > 20 kt
SIGMETs :   Divers  Orages  Givrage  Turbulence  Onde Orograph.  Cendres Volcan.






- Altitude de l'aérodrome : 1260 ft
- Code IATA : LDE


LFBT - Tarbes / Ossun

DERNIER METAR :
  • 151230Z AUTO VRB02KT 9999 4500 RA BKN017/// BKN022/// OVC028/// ///TCU 05/03 Q0999 TEMPO 4000 RA BKN012 SCT020CB BKN025TCU

METARs EXPIRÉS :
  • 151200Z AUTO VRB02KT 9999 -RA FEW021/// SCT029/// BKN036/// ///CB 06/03 Q0999 TEMPO 4000 RA BKN012 SCT020CB BKN025TCU
  • 151130Z AUTO VRB04KT 5000 RA BR BKN020/// OVC031/// ///CB 05/02 Q0999
  • 151100Z AUTO VRB02KT 9999 -RADZ BKN036/// BKN048/// OVC060/// ///CB 06/03 Q0998 TEMPO 4000 -SHRA BKN060
  • 151030Z AUTO VRB01KT 9999 -RA FEW041/// BKN056/// BKN068/// ///CB 06/03 Q0998 TEMPO 4000 -SHRA BKN060
  • 151000Z AUTO 06003KT 030V110 9999 -RA FEW032/// SCT045/// OVC054/// ///CB 06/03 Q0998 TEMPO 3000 -SHRA BECMG BKN060
  • 150930Z AUTO VRB02KT 9999 FEW036/// BKN046/// OVC054/// ///CB 05/02 Q0999 BECMG BKN060

TAF TAF LFBT
Valide du 15 à 12h jusqu'au 16 à 12h UTC


151100Z 1512/1612 VRB02KT 9999 BKN030 BKN060
TEMPO 1512/1519 4000 RA BKN012 SCT020CB BKN025TCU
BECMG 1513/1515 27010KT
PROB40
TEMPO 1515/1518 27015G25KT
BECMG 1523/1601 FEW020
PROB30
TEMPO 1609/1612 4000 -RA



MET'MAP, la Météo Aéronautique d'un coup d'oeil ! - Copyright ORBIFLY Décembre 2007 - Disclaimer

ORBIFLY MET'MAP TEAM :

Programmation & Développement : Alexandra Zaïnal
Conception & Développement : Baudouin d'Aumeries
Co-Programmation & Développement : Marc-Olivier Méhu
Soutien technique & logistique : Manuel Goepfert

Contact : metmap@orbifly.com




SOURCES & CREDITS :

   NOAA